Terminal Aerodrome Forecast
Issued by NWS

Home | Current Version | Previous Version | Text Only | Print | Product List | Glossary On
Versions: 1 2 3 4 5 6 7 8 9 10 11 12
000
FTUS46 KLOX 292340
TAFSBA
TAF
KSBA 292340Z 3000/3024 24008KT P6SM SKC
     FM300100 30006KT P6SM SKC WS010/34035KT
     FM301000 VRB03KT P6SM SKC
     FM301900 20007KT P6SM SKC
     FM302200 21007KT P6SM SKC WS010/33030KT=

USA.gov is the U.S. government's official web portal to all federal, state and local government web resources and services.